LEMD/MAD METAR and TAF weather

Enter ICAO airport designator
Station Type Date Time Source
LEMD METAR 2020/09/22 23:30 UTC NOAA

LEMD 222330Z VRB02KT CAVOK 18/12 Q1015 NOSIG


Station Type Date Time Source
LEMD Decoded METAR 2020/09/22 23:30 UTC NOAA

Madrid / Barajas, Spain (LEMD) 40-27N 003-33W 582M
Sep 22, 2020 - 07:30 PM EDT / 2020.09.22 2330 UTC
Wind: Variable at 2 MPH (2 KT):0
Visibility: greater than 7 mile(s):0
Temperature: 64 F (18 C)
Dew Point: 53 F (12 C)
Relative Humidity: 67%
Pressure (altimeter): 29.97 in. Hg (1015 hPa)
ob: LEMD 222330Z VRB02KT CAVOK 18/12 Q1015 NOSIG
cycle: 23

Station Type Date Time Source
LEMD TAF 2020/09/22 18:27 UTC NOAA

TAF LEMD 221700Z 2218/2324 24010KT 9999 FEW040 TX25/2316Z TN13/2306Z
TEMPO 2223/2310 VRB05KT PROB30
TEMPO 2314/2317 24012G24KT

Example: see airport list